Time;durP1;ratioP1;P1;durP2;ratioP2;P2;SDS_P1;SDS_P2;PMS_P1;PMS_P2;Temp;Humidity;BMP_temperature;BMP_pressure;BME280_temperature;BME280_humidity;BME280_pressure;Samples;Min_cycle;Max_cycle;Signal;HPM_P1;HPM_P2
2023/10/17 00:02:49;;;;;;;;;;;;;;;6.62;96.61;102002.97;5067397;28;19916;-67
2023/10/17 00:05:14;;;;;;;;;;;;;;;6.61;95.63;102002.09;5037832;28;19917;-67
2023/10/17 00:07:43;;;;;;;;;;;;;;;6.62;95.80;101997.78;5056201;28;20003;-67
2023/10/17 00:10:14;;;;;;;;;;;;;;;6.61;96.27;101996.00;5039324;28;19969;-67
2023/10/17 00:12:43;;;;;;;;;;;;;;;6.63;95.51;102002.16;5040258;28;19923;-67
2023/10/17 00:15:35;;;;;;;;;;;;;;;6.63;96.46;101990.00;5039838;28;19923;-67
2023/10/17 00:18:00;;;;;;;;;;;;;;;6.62;95.51;101992.56;5053783;28;19928;-67
2023/10/17 00:20:32;;;;;;;;;;;;;;;6.58;96.39;101982.06;5054633;28;20244;-67
2023/10/17 00:22:58;;;;;;;;;;;;;;;6.58;97.35;101982.06;5037049;28;20003;-67
2023/10/17 00:25:25;;;;;;;;;;;;;;;6.56;97.24;101981.13;5023220;28;19920;-67
2023/10/17 00:27:51;;;;;;;;;;;;;;;6.56;97.08;101982.88;5044269;28;19944;-67
2023/10/17 00:30:17;;;;;;;;;;;;;;;6.55;97.79;101988.91;5054887;28;19959;-68
2023/10/17 00:32:43;;;;;;;;;;;;;;;6.57;97.47;101989.84;5054161;28;19962;-67
2023/10/17 00:35:13;;;;;;;;;;;;;;;6.57;97.40;101989.84;5036007;28;20015;-67
2023/10/17 00:37:39;;;;;;;;;;;;;;;6.54;97.57;101982.84;5031577;28;19928;-68
2023/10/17 00:40:13;;;;;;;;;;;;;;;6.55;97.01;101987.22;5038399;28;19921;-67
2023/10/17 00:42:41;;;;;;;;;;;;;;;6.52;97.38;101976.75;5039865;28;19917;-67
2023/10/17 00:45:08;;;;;;;;;;;;;;;6.50;97.47;101973.19;5034621;28;20323;-67
2023/10/17 00:47:34;;;;;;;;;;;;;;;6.49;96.80;101970.56;5036027;28;20376;-67
2023/10/17 00:50:05;;;;;;;;;;;;;;;6.49;96.24;101963.63;5037226;28;20062;-67
2023/10/17 00:52:32;;;;;;;;;;;;;;;6.50;96.43;101968.00;5050518;28;19919;-67
2023/10/17 00:54:59;;;;;;;;;;;;;;;6.49;96.87;101961.00;5050470;28;19917;-67
2023/10/17 00:57:27;;;;;;;;;;;;;;;6.51;96.66;101964.56;5052706;28;19917;-68
2023/10/17 00:59:54;;;;;;;;;;;;;;;6.50;96.59;101968.00;5067794;28;19932;-68
2023/10/17 01:02:22;;;;;;;;;;;;;;;6.52;96.21;101965.41;5047043;28;20319;-70
2023/10/17 01:04:49;;;;;;;;;;;;;;;6.50;96.26;101957.56;5050698;28;19912;-67
2023/10/17 01:07:25;;;;;;;;;;;;;;;6.47;96.70;101947.09;5054757;28;20372;-67
2023/10/17 01:10:17;;;;;;;;;;;;;;;6.47;97.29;101954.91;5050874;28;19916;-67
2023/10/17 01:13:03;;;;;;;;;;;;;;;6.47;97.44;101956.63;5051172;28;19924;-68
2023/10/17 01:15:32;;;;;;;;;;;;;;;6.48;96.98;101956.69;5049470;28;19935;-69
2023/10/17 01:18:03;;;;;;;;;;;;;;;6.49;96.45;101963.63;5051523;28;20353;-68
2023/10/17 01:20:29;;;;;;;;;;;;;;;6.48;96.81;101967.09;5053226;28;19924;-68
2023/10/17 01:22:56;;;;;;;;;;;;;;;6.50;96.06;101968.00;5054634;28;19912;-68
2023/10/17 01:25:41;;;;;;;;;;;;;;;6.52;96.90;101976.75;5054525;28;20043;-68
2023/10/17 01:28:06;;;;;;;;;;;;;;;6.51;96.92;101963.69;5049393;28;19987;-68
2023/10/17 01:30:32;;;;;;;;;;;;;;;6.52;96.80;101965.41;5051622;28;20376;-69
2023/10/17 01:32:58;;;;;;;;;;;;;;;6.52;96.45;101970.63;5034487;28;20270;-68
2023/10/17 01:35:24;;;;;;;;;;;;;;;6.51;96.22;101964.56;5054518;28;20024;-68
2023/10/17 01:37:49;;;;;;;;;;;;;;;6.49;97.32;101966.22;5050224;28;19947;-68
2023/10/17 01:40:27;;;;;;;;;;;;;;;6.49;97.92;101967.97;5037351;28;19920;-68
2023/10/17 01:42:53;;;;;;;;;;;;;;;6.44;97.28;101959.16;5052393;28;19912;-68
2023/10/17 01:45:22;;;;;;;;;;;;;;;6.43;96.17;101955.69;5053679;28;19920;-68
2023/10/17 01:47:47;;;;;;;;;;;;;;;6.43;97.43;101950.47;5036260;28;20323;-68
2023/10/17 01:50:12;;;;;;;;;;;;;;;6.44;96.37;101936.63;5037227;28;19946;-68
2023/10/17 01:52:42;;;;;;;;;;;;;;;6.42;96.52;101930.47;5054490;28;19955;-68
2023/10/17 01:55:10;;;;;;;;;;;;;;;6.40;97.02;101942.59;5054730;28;19958;-68
2023/10/17 01:57:40;;;;;;;;;;;;;;;6.40;96.77;101939.97;5034365;28;19929;-68
2023/10/17 02:00:18;;;;;;;;;;;;;;;6.37;97.05;101934.72;5036452;28;19928;-68
2023/10/17 02:02:49;;;;;;;;;;;;;;;6.31;97.63;101925.03;5035260;28;19916;-69
2023/10/17 02:05:15;;;;;;;;;;;;;;;6.29;97.67;101921.50;5037420;28;19927;-68
2023/10/17 02:07:41;;;;;;;;;;;;;;;6.21;97.46;101918.72;5034295;28;19917;-68
2023/10/17 02:10:09;;;;;;;;;;;;;;;6.19;98.13;101910.03;5037334;28;20327;-68
2023/10/17 02:12:35;;;;;;;;;;;;;;;6.16;98.83;101914.25;5037601;28;19947;-69
2023/10/17 02:15:00;;;;;;;;;;;;;;;6.16;98.27;101909.94;5030605;28;20027;-68
2023/10/17 02:17:26;;;;;;;;;;;;;;;6.14;97.70;101914.22;5031976;28;19921;-68
2023/10/17 02:19:53;;;;;;;;;;;;;;;6.11;98.90;101908.94;5065871;28;20237;-68
2023/10/17 02:22:18;;;;;;;;;;;;;;;6.09;97.83;101907.16;5047639;28;19916;-68
2023/10/17 02:24:44;;;;;;;;;;;;;;;6.10;97.39;101907.19;5037168;28;19916;-68
2023/10/17 02:27:11;;;;;;;;;;;;;;;6.05;98.29;101907.06;5036351;28;19966;-68
2023/10/17 02:29:41;;;;;;;;;;;;;;;6.03;98.39;101908.78;5034448;28;20006;-68
2023/10/17 02:32:12;;;;;;;;;;;;;;;6.03;98.20;101910.47;5053698;28;19928;-68
2023/10/17 02:34:37;;;;;;;;;;;;;;;6.02;98.09;101913.91;5041513;28;19924;-67
2023/10/17 02:37:04;;;;;;;;;;;;;;;6.00;98.56;101902.59;5035177;28;19924;-67
2023/10/17 02:39:29;;;;;;;;;;;;;;;5.99;97.66;101901.75;5037394;28;20277;-67
2023/10/17 02:42:00;;;;;;;;;;;;;;;6.00;98.91;101913.00;5024818;28;20022;-68
2023/10/17 02:44:25;;;;;;;;;;;;;;;5.99;98.84;101921.66;5059818;28;20559;-67
2023/10/17 02:46:51;;;;;;;;;;;;;;;5.99;98.38;101909.53;5029267;28;19928;-67
2023/10/17 02:49:16;;;;;;;;;;;;;;;5.98;98.17;101905.16;5053148;28;19924;-67
2023/10/17 02:51:43;;;;;;;;;;;;;;;5.98;98.55;101902.56;5036305;28;20403;-68
2023/10/17 02:54:16;;;;;;;;;;;;;;;5.98;98.23;101904.31;5036873;28;20269;-67
2023/10/17 02:56:51;;;;;;;;;;;;;;;6.05;98.04;101903.59;5053156;28;19916;-68
2023/10/17 02:59:17;;;;;;;;;;;;;;;6.04;98.57;101904.44;5057202;28;19926;-67
2023/10/17 03:01:43;;;;;;;;;;;;;;;6.10;98.92;101901.97;5038248;28;20292;-67
2023/10/17 03:04:09;;;;;;;;;;;;;;;6.06;99.75;101905.34;5038025;28;19931;-68
2023/10/17 03:06:39;;;;;;;;;;;;;;;6.04;100.00;101901.84;5053947;28;19913;-67
2023/10/17 03:09:16;;;;;;;;;;;;;;;6.04;99.68;101904.44;5054362;28;20380;-67
2023/10/17 03:11:50;;;;;;;;;;;;;;;6.02;99.43;101904.41;5056478;28;19912;-67
2023/10/17 03:14:19;;;;;;;;;;;;;;;6.02;99.32;101900.91;5050797;28;19921;-67
2023/10/17 03:16:52;;;;;;;;;;;;;;;6.00;99.69;101902.59;5052464;28;19912;-67
2023/10/17 03:19:18;;;;;;;;;;;;;;;5.98;99.77;101899.97;5028506;28;19956;-68
2023/10/17 03:21:43;;;;;;;;;;;;;;;6.02;99.20;101906.09;5040301;28;19971;-68
2023/10/17 03:24:09;;;;;;;;;;;;;;;6.00;99.74;101898.25;5050936;28;19921;-68
2023/10/17 03:26:40;;;;;;;;;;;;;;;6.00;99.33;101907.81;5037314;28;19917;-67
2023/10/17 03:29:18;;;;;;;;;;;;;;;5.99;100.00;101900.84;5074986;28;19927;-68
2023/10/17 03:31:48;;;;;;;;;;;;;;;5.99;100.00;101903.44;5054174;28;19920;-68
2023/10/17 03:34:14;;;;;;;;;;;;;;;5.97;99.46;101897.28;5054688;28;20212;-68
2023/10/17 03:36:41;;;;;;;;;;;;;;;5.96;100.00;101893.81;5039865;28;20280;-68
2023/10/17 03:39:26;;;;;;;;;;;;;;;5.94;100.00;101902.44;5053462;28;19924;-69
2023/10/17 03:41:58;;;;;;;;;;;;;;;5.93;100.00;101904.13;5044018;28;19970;-68
2023/10/17 03:44:30;;;;;;;;;;;;;;;5.93;99.79;101917.13;5050252;28;19920;-68
2023/10/17 03:46:59;;;;;;;;;;;;;;;5.94;100.00;101912.84;5055860;28;19916;-67
2023/10/17 03:49:24;;;;;;;;;;;;;;;5.94;100.00;101915.44;5054475;28;19940;-67
2023/10/17 03:51:54;;;;;;;;;;;;;;;5.92;100.00;101915.41;5056357;28;19967;-67
2023/10/17 03:54:22;;;;;;;;;;;;;;;5.92;100.00;101914.50;5038627;28;19921;-68
2023/10/17 03:56:49;;;;;;;;;;;;;;;5.93;100.00;101908.47;5038690;28;19934;-68
2023/10/17 03:59:37;;;;;;;;;;;;;;;5.93;99.93;101905.88;5039220;28;19929;-68
2023/10/17 04:02:06;;;;;;;;;;;;;;;5.94;100.00;101905.91;5034845;28;19927;-68
2023/10/17 04:04:46;;;;;;;;;;;;;;;5.92;100.00;101898.91;5054430;28;19966;-68
2023/10/17 04:07:11;;;;;;;;;;;;;;;5.89;100.00;101902.31;5049919;28;19927;-68
2023/10/17 04:09:49;;;;;;;;;;;;;;;5.88;100.00;101901.44;5056296;28;19912;-68
2023/10/17 04:12:21;;;;;;;;;;;;;;;5.89;100.00;101902.31;5040055;28;19920;-67
2023/10/17 04:14:59;;;;;;;;;;;;;;;5.88;100.00;101904.03;5046169;28;19921;-67
2023/10/17 04:17:29;;;;;;;;;;;;;;;5.89;100.00;101916.19;5035821;28;19991;-68
2023/10/17 04:19:58;;;;;;;;;;;;;;;5.92;100.00;101904.09;5049882;28;20287;-68
2023/10/17 04:22:29;;;;;;;;;;;;;;;5.89;100.00;101905.78;5053358;28;19951;-68
2023/10/17 04:24:55;;;;;;;;;;;;;;;5.89;100.00;101916.19;5039978;28;19921;-67
2023/10/17 04:27:22;;;;;;;;;;;;;;;5.90;100.00;101912.75;5069273;28;20277;-67
2023/10/17 04:29:50;;;;;;;;;;;;;;;5.93;100.00;101911.06;5039022;28;20300;-67
2023/10/17 04:32:19;;;;;;;;;;;;;;;5.92;100.00;101912.81;5029629;28;19924;-68
2023/10/17 04:34:46;;;;;;;;;;;;;;;5.94;100.00;101912.84;5033590;28;21701;-68
2023/10/17 04:37:16;;;;;;;;;;;;;;;5.93;100.00;101908.47;5054988;28;19913;-68
2023/10/17 04:40:27;;;;;;;;;;;;;;;5.92;100.00;101906.69;5048105;28;19913;-68
2023/10/17 04:45:23;;;;;;;;;;;;;;;5.95;100.00;101927.59;5051560;28;20086;-68
2023/10/17 04:48:09;;;;;;;;;;;;;;;5.95;100.00;101924.97;5037216;28;19917;-68
2023/10/17 04:50:44;;;;;;;;;;;;;;;5.96;100.00;101926.75;5065888;28;19952;-68
2023/10/17 04:53:16;;;;;;;;;;;;;;;5.98;100.00;101923.38;5054346;28;19931;-69
2023/10/17 04:56:01;;;;;;;;;;;;;;;5.98;100.00;101909.50;5039491;28;20330;-68
2023/10/17 04:58:39;;;;;;;;;;;;;;;5.98;100.00;101912.09;5037485;28;20007;-68
2023/10/17 05:03:45;;;;;;;;;;;;;;;5.98;100.00;101914.72;5064627;28;19975;-69
2023/10/17 06:17:00;;;;;;;;;;;;;;;5.94;100.00;101885.09;5065217;28;20005;-68
2023/10/17 06:19:27;;;;;;;;;;;;;;;5.92;100.00;101888.47;5065334;28;19993;-68
2023/10/17 06:32:48;;;;;;;;;;;;;;;5.98;100.00;101901.69;5055098;28;19928;-68
2023/10/17 06:35:20;;;;;;;;;;;;;;;6.00;100.00;101906.06;5052457;28;20034;-68
2023/10/17 06:37:49;;;;;;;;;;;;;;;6.00;100.00;101900.00;5056767;28;19920;-68
2023/10/17 06:40:15;;;;;;;;;;;;;;;6.09;100.00;101908.00;5048531;28;19959;-68
2023/10/17 06:42:48;;;;;;;;;;;;;;;6.07;100.00;101913.19;5037834;28;19956;-68
2023/10/17 06:45:18;;;;;;;;;;;;;;;6.07;100.00;101910.59;5052799;28;19998;-68
2023/10/17 06:47:49;;;;;;;;;;;;;;;6.10;100.00;101909.78;5044292;28;19932;-68
2023/10/17 06:55:35;;;;;;;;;;;;;;;6.17;100.00;101909.09;5071845;28;20348;-68
2023/10/17 06:58:08;;;;;;;;;;;;;;;6.15;100.00;101910.78;5055056;28;19921;-66
2023/10/17 07:00:49;;;;;;;;;;;;;;;6.20;100.00;101911.75;5037795;28;19924;-67
2023/10/17 07:03:15;;;;;;;;;;;;;;;6.17;100.00;101909.09;5041061;28;19924;-66
2023/10/17 07:05:46;;;;;;;;;;;;;;;6.20;100.00;101916.97;5037816;28;19916;-66
2023/10/17 07:08:14;;;;;;;;;;;;;;;6.24;100.00;101913.59;5048025;28;19917;-67
2023/10/17 07:10:40;;;;;;;;;;;;;;;6.23;100.00;101917.06;5059851;28;19955;-67
2023/10/17 07:13:24;;;;;;;;;;;;;;;6.29;100.00;101908.47;5056545;28;19956;-66
2023/10/17 07:15:52;;;;;;;;;;;;;;;6.29;100.00;101905.00;5066669;28;19913;-66
2023/10/17 07:23:42;;;;;;;;;;;;;;;6.36;100.00;101901.69;5052893;28;20372;-68
2023/10/17 07:26:17;;;;;;;;;;;;;;;6.44;100.00;101913.19;5054768;28;20418;-66
2023/10/17 07:28:42;;;;;;;;;;;;;;;6.56;100.00;101910.81;5034090;28;19917;-67
2023/10/17 07:31:11;;;;;;;;;;;;;;;6.61;100.00;101910.06;5025313;28;20407;-67
2023/10/17 07:33:43;;;;;;;;;;;;;;;6.76;100.00;101900.84;5038944;28;20366;-67
2023/10/17 07:36:27;;;;;;;;;;;;;;;6.89;100.00;101909.78;5054342;28;19916;-67
2023/10/17 07:38:52;;;;;;;;;;;;;;;7.13;100.00;101907.66;5040721;28;20353;-69
2023/10/17 07:41:36;;;;;;;;;;;;;;;7.68;98.08;101908.66;5038053;28;19990;-68
2023/10/17 07:44:09;;;;;;;;;;;;;;;8.30;95.44;101897.50;5042026;28;19916;-67
2023/10/17 07:46:34;;;;;;;;;;;;;;;8.18;96.17;101906.88;5054857;28;20007;-69
2023/10/17 07:49:05;;;;;;;;;;;;;;;7.89;96.51;101907.28;5033431;28;20408;-68
2023/10/17 07:51:32;;;;;;;;;;;;;;;7.65;97.61;101907.75;5039081;28;20007;-68
2023/10/17 07:53:58;;;;;;;;;;;;;;;7.53;98.60;101905.78;5056109;28;19912;-69
2023/10/17 07:56:25;;;;;;;;;;;;;;;7.42;98.65;101901.25;5033611;28;19928;-68
2023/10/17 07:59:08;;;;;;;;;;;;;;;7.40;99.30;101907.31;5039293;28;19928;-68
2023/10/17 08:01:43;;;;;;;;;;;;;;;7.52;98.83;101902.31;5035418;28;20420;-68
2023/10/17 08:04:18;;;;;;;;;;;;;;;7.70;98.33;101906.97;5051450;28;19916;-68
2023/10/17 08:06:50;;;;;;;;;;;;;;;8.31;96.94;101911.41;5053204;28;20323;-68
2023/10/17 08:09:23;;;;;;;;;;;;;;;8.90;94.35;101901.78;5036179;28;19928;-68
2023/10/17 08:11:52;;;;;;;;;;;;;;;9.59;93.34;101899.91;5047561;28;19967;-69
2023/10/17 08:14:19;;;;;;;;;;;;;;;10.95;88.01;101892.94;5038805;28;19946;-69
2023/10/17 08:16:49;;;;;;;;;;;;;;;11.66;84.73;101898.34;5055679;28;20015;-69
2023/10/17 08:19:15;;;;;;;;;;;;;;;12.09;83.70;101900.97;5053929;28;19958;-69
2023/10/17 08:24:51;;;;;;;;;;;;;;;12.71;80.20;101906.09;4980042;28;20353;-69
2023/10/17 08:29:49;;;;;;;;;;;;;;;12.76;79.51;101909.59;5028742;28;19920;-69
2023/10/17 08:34:48;;;;;;;;;;;;;;;12.95;80.88;101902.50;5040980;28;19927;-67
2023/10/17 08:37:27;;;;;;;;;;;;;;;12.83;80.34;101900.78;5047076;28;20007;-69
2023/10/17 08:39:52;;;;;;;;;;;;;;;12.37;82.17;101900.94;5055105;28;20432;-69
2023/10/17 08:42:30;;;;;;;;;;;;;;;12.28;83.45;101895.69;5038728;28;20012;-69
2023/10/17 08:47:32;;;;;;;;;;;;;;;11.43;82.05;101904.44;5109228;22;20035;-69
2023/10/17 08:50:08;;;;;;;;;;;;;;;11.56;84.81;101896.56;5067529;28;19924;-69
2023/10/17 08:52:35;;;;;;;;;;;;;;;11.25;84.29;101900.03;5058101;28;19947;-69
2023/10/17 08:57:37;;;;;;;;;;;;;;;11.69;81.98;101900.09;5277425;22;19929;-69
2023/10/17 09:16:34;;;;;;;;;;;;;;;11.14;83.83;101893.00;5041896;28;19978;-88
2023/10/17 09:19:10;;;;;;;;;;;;;;;11.12;82.29;101889.50;5040436;28;19996;-91
2023/10/17 09:24:46;;;;;;;;;;;;;;;11.17;82.26;101903.50;5073838;28;19970;-89
2023/10/17 09:27:20;;;;;;;;;;;;;;;11.25;81.45;101907.03;5057131;28;19920;-89
2023/10/17 09:29:55;;;;;;;;;;;;;;;11.55;78.96;101898.34;5055873;28;20301;-89
2023/10/17 09:32:40;;;;;;;;;;;;;;;12.60;73.67;101900.88;5054021;28;19959;-89
2023/10/17 09:41:17;;;;;;;;;;;;;;;13.71;72.03;101914.38;5074324;28;19947;-89
2023/10/17 09:46:49;;;;;;;;;;;;;;;14.08;71.46;101906.13;5074099;28;20399;-89
2023/10/17 09:49:21;;;;;;;;;;;;;;;13.88;73.22;101908.94;5057060;28;19959;-91
2023/10/17 09:51:55;;;;;;;;;;;;;;;13.67;72.62;101911.72;5056187;28;20273;-89
2023/10/17 09:57:25;;;;;;;;;;;;;;;12.85;74.25;101906.03;5073839;28;19941;-91
2023/10/17 10:02:56;;;;;;;;;;;;;;;12.46;73.71;101916.69;5073286;28;19926;-92
2023/10/17 10:08:35;;;;;;;;;;;;;;;12.66;73.82;101902.63;5073473;28;20001;-91
2023/10/17 10:11:01;;;;;;;;;;;;;;;12.68;72.83;101906.09;5055289;28;20415;-92
2023/10/17 10:19:55;;;;;;;;;;;;;;;12.81;72.82;101886.78;4998281;28;19919;-92
2023/10/17 10:22:47;;;;;;;;;;;;;;;12.68;71.97;101898.22;5034823;28;20344;-91
2023/10/17 10:25:27;;;;;;;;;;;;;;;12.71;72.68;101898.19;5050211;28;19916;-91
2023/10/17 10:28:15;;;;;;;;;;;;;;;12.86;70.25;101885.88;5038808;28;20368;-92
2023/10/17 10:30:54;;;;;;;;;;;;;;;13.11;69.35;101882.22;5051490;28;20008;-92
2023/10/17 10:33:46;;;;;;;;;;;;;;;13.12;69.86;101886.63;5039095;28;19923;-91
2023/10/17 10:39:23;;;;;;;;;;;;;;;14.26;67.49;101878.72;5072934;28;19920;-89
2023/10/17 10:42:04;;;;;;;;;;;;;;;15.59;63.63;101875.25;5055379;28;19917;-90
2023/10/17 10:44:43;;;;;;;;;;;;;;;15.42;61.30;101881.66;5054428;28;20011;-90
2023/10/17 10:47:31;;;;;;;;;;;;;;;15.02;63.19;101873.44;5054970;28;19919;-88
2023/10/17 10:50:05;;;;;;;;;;;;;;;14.26;65.08;101866.41;5043875;28;19921;-90
2023/10/17 10:52:46;;;;;;;;;;;;;;;14.07;66.54;101863.09;5052726;28;19912;-90
2023/10/17 10:58:18;;;;;;;;;;;;;;;13.72;65.95;101859.03;5060710;28;19970;-90
2023/10/17 11:01:02;;;;;;;;;;;;;;;13.42;66.27;101850.50;5055533;28;19920;-90
2023/10/17 11:03:28;;;;;;;;;;;;;;;13.47;67.11;101840.78;5054954;28;19920;-90
2023/10/17 11:08:56;;;;;;;;;;;;;;;14.11;64.77;101840.22;5072788;28;19962;-90
2023/10/17 11:11:56;;;;;;;;;;;;;;;14.02;65.55;101833.25;5059575;28;19983;-90
2023/10/17 11:14:28;;;;;;;;;;;;;;;13.50;64.74;101838.16;5038615;28;19966;-89
2023/10/17 11:16:57;;;;;;;;;;;;;;;13.06;66.31;101828.78;5053672;28;19916;-90
2023/10/17 11:22:41;;;;;;;;;;;;;;;12.72;66.63;101833.34;5076426;28;19931;-91
2023/10/17 11:25:31;;;;;;;;;;;;;;;12.59;67.50;101817.63;5045305;28;19917;-91
2023/10/17 11:28:23;;;;;;;;;;;;;;;12.56;66.58;101824.66;5038550;28;19913;-91
2023/10/17 11:31:01;;;;;;;;;;;;;;;;;;;;;
2023/10/17 11:33:47;;;;;;;;;;;;;;;12.47;67.23;101796.66;5056285;28;20321;-92
2023/10/17 11:37:02;;;;;;;;;;;;;;;12.59;66.83;101803.59;5055168;28;19971;-92
2023/10/17 11:39:20;;;;;;;;;;;;;;;12.42;66.81;101796.66;5053433;28;19913;-91
2023/10/17 11:41:57;;;;;;;;;;;;;;;12.47;66.63;101796.66;5048925;28;19916;-93
2023/10/17 11:47:28;;;;;;;;;;;;;;;12.25;67.36;101791.44;5076038;28;20337;-91
2023/10/17 11:53:20;;;;;;;;;;;;;;;12.23;67.29;101789.72;5075828;28;19999;-91
2023/10/17 11:58:57;;;;;;;;;;;;;;;12.23;66.93;101792.38;5075612;28;19919;-92
2023/10/17 12:01:25;;;;;;;;;;;;;;;12.18;65.71;101780.97;5057802;28;19925;-91
2023/10/17 12:03:51;;;;;;;;;;;;;;;12.24;67.07;101784.47;5057654;28;20379;-92
2023/10/17 12:09:26;;;;;;;;;;;;;;;12.21;65.49;101783.59;5076026;28;19966;-89
2023/10/17 12:11:57;;;;;;;;;;;;;;;12.23;66.21;101782.72;5056587;28;19916;-89
2023/10/17 12:14:23;;;;;;;;;;;;;;;12.23;65.43;101787.09;5057689;28;20379;-88
2023/10/17 12:16:55;;;;;;;;;;;;;;;12.24;66.23;101788.84;5057387;28;19921;-89
2023/10/17 12:19:26;;;;;;;;;;;;;;;12.34;66.17;101795.81;5057694;28;19912;-88
2023/10/17 12:22:09;;;;;;;;;;;;;;;12.36;64.74;101783.53;5057226;28;20269;-90
2023/10/17 12:24:34;;;;;;;;;;;;;;;12.37;65.41;101772.16;5057688;28;20194;-89
2023/10/17 12:27:00;;;;;;;;;;;;;;;12.35;65.29;101760.75;5057489;28;19939;-89
2023/10/17 12:29:37;;;;;;;;;;;;;;;12.30;65.27;101763.41;5075350;28;19935;-92
2023/10/17 12:32:10;;;;;;;;;;;;;;;12.32;64.94;101758.16;5057113;28;19921;-92
2023/10/17 12:34:41;;;;;;;;;;;;;;;12.35;64.11;101752.88;5061639;28;19994;-93
2023/10/17 12:37:14;;;;;;;;;;;;;;;12.27;64.14;101742.41;5064805;28;19919;-92
2023/10/17 12:39:49;;;;;;;;;;;;;;;12.28;63.56;101740.66;5058248;28;19912;-93
2023/10/17 12:42:15;;;;;;;;;;;;;;;12.16;63.58;101731.06;5058747;28;19924;-93
2023/10/17 12:44:40;;;;;;;;;;;;;;;12.11;64.97;101720.59;5043030;28;20015;-92
2023/10/17 12:47:16;;;;;;;;;;;;;;;12.09;63.74;101714.44;5059988;28;19947;-93
2023/10/17 12:49:41;;;;;;;;;;;;;;;12.16;63.22;101715.31;5059137;28;19956;-91
2023/10/17 12:52:10;;;;;;;;;;;;;;;12.27;64.33;101704.75;5053688;28;19920;-93
2023/10/17 12:54:52;;;;;;;;;;;;;;;13.74;59.65;101695.72;5038480;28;19916;-91
2023/10/17 13:00:26;;;;;;;;;;;;;;;14.43;55.89;101681.63;5052199;28;20000;-90
2023/10/17 13:03:11;;;;;;;;;;;;;;;13.75;57.73;101679.00;5037552;28;19944;-91
2023/10/17 13:05:58;;;;;;;;;;;;;;;13.12;58.81;101681.34;5053140;28;19919;-91
2023/10/17 13:08:42;;;;;;;;;;;;;;;12.96;60.81;101691.16;5037525;28;20333;-91
2023/10/17 13:11:38;;;;;;;;;;;;;;;12.86;61.34;101691.22;5053889;28;20277;-91
2023/10/17 13:14:05;;;;;;;;;;;;;;;12.85;62.40;101692.97;5027778;28;19917;-92
2023/10/17 13:16:52;;;;;;;;;;;;;;;12.74;62.37;101685.19;5036878;28;19932;-90
2023/10/17 13:19:33;;;;;;;;;;;;;;;12.73;63.15;101688.69;5053220;28;19919;-91
2023/10/17 13:22:16;;;;;;;;;;;;;;;12.64;63.29;101681.75;5052493;28;19923;-91
2023/10/17 13:28:06;;;;;;;;;;;;;;;;;;;;;
2023/10/17 13:30:40;;;;;;;;;;;;;;;12.30;63.73;101665.31;5038480;28;19924;-91
2023/10/17 13:33:08;;;;;;;;;;;;;;;12.33;63.68;101675.81;5036285;28;20263;-91
2023/10/17 13:38:40;;;;;;;;;;;;;;;12.31;64.29;101677.56;5054061;28;19920;-91
2023/10/17 13:44:17;;;;;;;;;;;;;;;12.26;63.95;101671.47;5053897;28;19935;-91
2023/10/17 13:46:47;;;;;;;;;;;;;;;12.11;65.39;101661.88;5036665;28;19928;-91
2023/10/17 13:55:48;;;;;;;;;;;;;;;12.16;65.74;101654.88;4972925;28;19921;-90
2023/10/17 13:58:22;;;;;;;;;;;;;;;12.11;65.97;101665.41;5052318;28;20031;-90
2023/10/17 14:01:55;;;;;;;;;;;;;;;12.10;66.28;101666.28;5054102;28;19917;-90
2023/10/17 14:07:16;;;;;;;;;;;;;;;12.16;65.88;101656.63;5053571;28;19924;-91
2023/10/17 14:12:46;;;;;;;;;;;;;;;12.00;66.12;101647.97;5053650;28;20391;-90
2023/10/17 14:19:12;;;;;;;;;;;;;;;11.87;65.81;101647.97;5051333;28;20043;-90
2023/10/17 14:28:22;;;;;;;;;;;;;;;11.81;66.76;101647.09;5053334;28;19935;-90
2023/10/17 14:40:42;;;;;;;;;;;;;;;11.77;66.70;101625.25;5053182;28;20016;-93
2023/10/17 14:43:43;;;;;;;;;;;;;;;11.65;67.50;101614.78;5036371;28;19913;-93
2023/10/17 14:46:09;;;;;;;;;;;;;;;11.56;67.43;101616.56;4994797;28;19920;-89
2023/10/17 14:48:56;;;;;;;;;;;;;;;11.51;67.40;101612.25;5052537;28;19913;-93
2023/10/17 14:51:33;;;;;;;;;;;;;;;11.48;67.89;101612.22;5036544;28;19923;-91
2023/10/17 14:54:08;;;;;;;;;;;;;;;11.44;68.08;101603.50;5023931;28;19962;-92
2023/10/17 14:56:39;;;;;;;;;;;;;;;11.47;67.97;101605.25;5039332;28;19919;-92
2023/10/17 14:59:10;;;;;;;;;;;;;;;11.41;68.03;101596.50;5039399;28;19917;-93
2023/10/17 15:01:43;;;;;;;;;;;;;;;11.40;68.58;101597.38;5039467;28;19913;-92
2023/10/17 15:07:27;;;;;;;;;;;;;;;11.41;68.85;101580.75;5057088;28;19919;-91
2023/10/17 15:09:59;;;;;;;;;;;;;;;11.35;69.42;101579.88;5038998;28;19917;-92
2023/10/17 15:12:27;;;;;;;;;;;;;;;11.42;68.66;101579.88;5039251;28;19999;-93
2023/10/17 15:23:45;;;;;;;;;;;;;;;11.15;70.36;101577.31;5059243;28;19951;-92
2023/10/17 15:29:16;;;;;;;;;;;;;;;11.12;70.70;101577.34;5056498;28;19919;-93
2023/10/17 15:32:04;;;;;;;;;;;;;;;11.01;71.11;101577.38;5038635;28;19913;-93
2023/10/17 15:34:48;;;;;;;;;;;;;;;11.00;70.91;101571.22;5038653;28;20353;-93
2023/10/17 15:37:46;;;;;;;;;;;;;;;10.94;71.27;101573.00;5037874;28;19912;-92
2023/10/17 15:40:24;;;;;;;;;;;;;;;10.91;72.22;101574.75;5037777;28;19919;-92
2023/10/17 15:42:55;;;;;;;;;;;;;;;10.84;72.01;101578.25;5038337;28;20280;-93
2023/10/17 15:45:46;;;;;;;;;;;;;;;10.86;72.52;101580.88;5039197;28;19999;-91
2023/10/17 15:48:24;;;;;;;;;;;;;;;10.78;72.44;101582.66;5037585;28;19966;-92
2023/10/17 15:51:06;;;;;;;;;;;;;;;10.74;72.41;101587.88;5038673;28;20007;-92
2023/10/17 15:53:53;;;;;;;;;;;;;;;10.70;72.24;101586.16;5018055;28;19973;-92
2023/10/17 15:56:40;;;;;;;;;;;;;;;10.61;72.46;101582.66;5039069;28;19913;-92
2023/10/17 15:59:16;;;;;;;;;;;;;;;10.57;73.38;101573.91;5038511;28;20309;-92
2023/10/17 16:08:15;;;;;;;;;;;;;;;10.25;74.13;101579.09;4972311;28;20322;-91
2023/10/17 16:10:57;;;;;;;;;;;;;;;10.16;74.88;101590.44;5037752;28;19920;-93
2023/10/17 16:19:54;;;;;;;;;;;;;;;9.90;75.85;101591.25;4954100;29;19930;-93
2023/10/17 16:22:47;;;;;;;;;;;;;;;9.88;76.51;101599.09;5017672;28;19928;-93
2023/10/17 16:34:47;;;;;;;;;;;;;;;9.64;77.19;101588.50;4996617;28;20329;-93
2023/10/17 16:37:52;;;;;;;;;;;;;;;;;;;;;
2023/10/17 16:40:19;;;;;;;;;;;;;;;9.47;77.77;101580.63;4978156;28;19993;-94
2023/10/17 16:42:50;;;;;;;;;;;;;;;9.43;78.42;101582.31;4977418;28;20381;-91
2023/10/17 16:45:21;;;;;;;;;;;;;;;9.39;78.19;101587.53;4978170;28;19921;-90
2023/10/17 16:47:46;;;;;;;;;;;;;;;9.36;79.08;101584.03;4977488;28;19918;-91
2023/10/17 16:50:17;;;;;;;;;;;;;;;9.26;78.92;101578.75;5004649;28;19996;-91
2023/10/17 16:52:43;;;;;;;;;;;;;;;9.18;79.41;101581.34;5017246;28;20219;-91
2023/10/17 16:55:16;;;;;;;;;;;;;;;9.11;79.90;101579.56;5017185;28;19919;-91
2023/10/17 16:57:42;;;;;;;;;;;;;;;9.02;80.09;101577.72;5000712;28;19921;-89
2023/10/17 17:00:13;;;;;;;;;;;;;;;8.94;80.21;101576.81;5016931;28;19920;-89
2023/10/17 17:02:43;;;;;;;;;;;;;;;8.88;80.32;101582.88;5034938;28;20003;-89
2023/10/17 17:05:12;;;;;;;;;;;;;;;8.85;80.86;101585.47;5018193;28;20338;-89
2023/10/17 17:07:38;;;;;;;;;;;;;;;8.82;80.77;101588.94;5016973;28;19914;-89
2023/10/17 17:10:05;;;;;;;;;;;;;;;8.76;80.94;101590.63;5035622;28;20265;-89
2023/10/17 17:12:31;;;;;;;;;;;;;;;8.72;81.13;101586.22;5016957;28;19967;-89
2023/10/17 17:14:59;;;;;;;;;;;;;;;8.66;81.66;101580.09;5016626;28;19948;-89
2023/10/17 17:17:24;;;;;;;;;;;;;;;8.62;81.97;101593.09;5016814;28;19999;-89
2023/10/17 17:19:51;;;;;;;;;;;;;;;8.56;81.46;101587.84;5022604;28;19994;-92
2023/10/17 17:22:16;;;;;;;;;;;;;;;8.59;82.07;101595.69;5020592;28;20027;-90
2023/10/17 17:24:41;;;;;;;;;;;;;;;8.50;81.78;101583.44;5020797;28;20365;-90
2023/10/17 17:27:09;;;;;;;;;;;;;;;8.48;82.23;101595.63;5020223;28;20357;-91
2023/10/17 17:29:35;;;;;;;;;;;;;;;8.46;82.70;101592.09;5020579;28;19971;-91
2023/10/17 17:32:00;;;;;;;;;;;;;;;8.43;82.96;101602.50;5036356;28;19913;-91
2023/10/17 17:34:26;;;;;;;;;;;;;;;8.39;83.23;101590.25;5036188;28;19912;-92